Delta Virtual Airport Information Service

Milwaukee General Mitchell International Airport

ICAO: KMKE Country: United States
Latitude: 42.9472 Longitude: -87.8965
Latest Arrival : SWA1708 (B) (KSTL-KMKE) Latest Departure : SWA2948 (KMKE-KCLE)


WX CaptureLIVE
Data provided by noaa.gov | Fetched at 21:06:48

METAR : KMKE 250152Z 35005KT 10SM SCT150 OVC200 04/M03 A3025 RMK AO2 SLP250 T00391033

TAF : KMKE 242320Z 2500/2606 01005KT P6SM BKN040 FM251300 01007KT P6SM OVC045 FM260300 01010KT P6SM OVC011


Runway Data for KMKE
Data provided by openaviationdata.com

Runway ID Mag Var Hdg Length Elevation Surface ILS Freq ILS Id ILS Slope
01L -2 9694 ft 676 ft Concrete 110.3 IMKE 3
01R -2 4184 ft 676 ft Asphalt -- -- --
07L -2 73° 4794 ft 676 ft Asphalt -- -- --
07R -2 73° 8001 ft 676 ft Concrete 111.5 IGMF 3
13 -2 134° 5864 ft 676 ft Asphalt -- -- --
19L -2 189° 4184 ft 676 ft Asphalt -- -- --
19R -2 189° 9694 ft 676 ft Concrete 110.3 IBLY 3
25L -2 253° 8001 ft 676 ft Concrete 111.5 IPXY 0
25R -2 253° 4794 ft 676 ft Asphalt -- -- --
31 -2 314° 5864 ft 676 ft Asphalt -- -- --

Milwaukee General Mitchell International Airport, United States
Use only for reference purposes



Not for navigational purposes.